createdAt,value
2023-03-20T00:00:25.482Z,289.23
2023-03-20T00:02:52.768Z,318.60
2023-03-20T00:05:21.374Z,397.20
2023-03-20T00:07:49.393Z,210.80
2023-03-20T00:10:17.939Z,233.50
2023-03-20T00:12:45.728Z,331.10
2023-03-20T00:15:36.505Z,241.73
2023-03-20T00:18:04.495Z,345.47
2023-03-20T00:20:31.814Z,171.00
2023-03-20T00:22:59.016Z,117.90
2023-03-20T00:25:27.075Z,187.93
2023-03-20T00:27:54.339Z,109.43
2023-03-20T00:30:23.687Z,161.70
2023-03-20T00:32:53.030Z,144.80
2023-03-20T00:35:28.052Z,189.17
2023-03-20T00:37:55.649Z,111.53
2023-03-20T00:40:22.943Z,133.53
2023-03-20T00:42:52.050Z,186.00
2023-03-20T00:45:21.110Z,147.80
2023-03-20T00:47:49.426Z,158.37
2023-03-20T00:50:17.869Z,160.00
2023-03-20T00:52:45.136Z,366.63
2023-03-20T00:55:12.734Z,103.00
2023-03-20T00:57:43.762Z,324.50
2023-03-20T01:00:28.094Z,270.30
2023-03-20T01:02:56.568Z,140.30
2023-03-20T01:05:23.730Z,396.60
2023-03-20T01:07:51.160Z,174.90
2023-03-20T01:10:18.634Z,258.10
2023-03-20T01:12:47.445Z,261.83
2023-03-20T01:15:17.764Z,138.80
2023-03-20T01:17:45.202Z,185.30
2023-03-20T01:20:16.760Z,532.80
2023-03-20T01:22:43.937Z,692.30
2023-03-20T01:25:11.467Z,479.37
2023-03-20T01:27:39.038Z,187.27
2023-03-20T01:30:16.580Z,278.27
2023-03-20T01:32:44.422Z,438.97
2023-03-20T01:35:13.865Z,416.17
2023-03-20T01:37:42.073Z,226.47
2023-03-20T01:40:18.670Z,250.10
2023-03-20T01:42:45.824Z,358.33
2023-03-20T01:45:16.539Z,449.67
2023-03-20T01:47:43.742Z,466.30
2023-03-20T01:50:26.450Z,289.40
2023-03-20T01:53:22.936Z,297.80
2023-03-20T01:55:52.153Z,380.53
2023-03-20T01:58:25.357Z,467.30
2023-03-20T02:00:53.501Z,473.97
2023-03-20T02:03:21.145Z,398.97
2023-03-20T02:05:48.655Z,381.37
2023-03-20T02:08:18.965Z,618.00
2023-03-20T02:10:47.622Z,610.00
2023-03-20T02:13:15.898Z,386.73
2023-03-20T02:16:03.797Z,613.40
2023-03-20T02:18:31.937Z,667.87
2023-03-20T02:21:17.860Z,541.93
2023-03-20T02:24:03.732Z,253.50
2023-03-20T02:26:46.346Z,657.93
2023-03-20T02:29:16.852Z,309.60
2023-03-20T02:32:02.742Z,411.43
2023-03-20T02:34:48.636Z,379.83
2023-03-20T02:37:31.027Z,315.63
2023-03-20T02:39:58.191Z,606.10
2023-03-20T02:42:33.737Z,492.17
2023-03-20T02:45:01.762Z,562.37
2023-03-20T02:47:42.274Z,349.03
2023-03-20T02:50:09.686Z,486.23
2023-03-20T02:52:39.936Z,491.90
2023-03-20T02:55:16.276Z,424.77
2023-03-20T02:57:49.369Z,463.90
2023-03-20T03:00:28.658Z,389.63
2023-03-20T03:03:00.411Z,429.27
2023-03-20T03:05:31.657Z,423.13
2023-03-20T03:08:00.835Z,264.10
2023-03-20T03:10:30.772Z,302.10
2023-03-20T03:12:59.587Z,571.40
2023-03-20T03:15:30.600Z,202.83
2023-03-20T03:17:58.971Z,670.00
2023-03-20T03:20:28.805Z,626.30
2023-03-20T03:22:56.489Z,400.67
2023-03-20T03:25:25.150Z,506.60
2023-03-20T03:27:57.782Z,542.90
2023-03-20T03:30:29.543Z,598.33
2023-03-20T03:33:35.926Z,548.03
2023-03-20T03:36:06.060Z,548.23
2023-03-20T03:38:46.447Z,138.80
2023-03-20T03:41:33.848Z,578.07
2023-03-20T03:44:06.499Z,460.33
2023-03-20T03:46:42.299Z,461.77
2023-03-20T03:49:13.485Z,366.27
2023-03-20T03:51:43.432Z,757.83
2023-03-20T03:54:22.935Z,491.47
2023-03-20T03:56:50.937Z,357.80
2023-03-20T03:59:31.255Z,515.07
2023-03-20T04:01:59.377Z,493.87
2023-03-20T04:04:27.480Z,366.87
2023-03-20T04:06:54.980Z,531.87
2023-03-20T04:09:22.140Z,434.13
2023-03-20T04:11:51.505Z,344.20
2023-03-20T04:14:18.935Z,472.40
2023-03-20T04:16:46.478Z,431.73
2023-03-20T04:19:13.602Z,392.60
2023-03-20T04:21:40.729Z,381.53
2023-03-20T04:24:07.966Z,512.13
2023-03-20T04:26:35.110Z,350.27
2023-03-20T04:29:03.002Z,286.80
2023-03-20T04:31:30.587Z,326.80
2023-03-20T04:33:57.788Z,312.37
2023-03-20T04:36:24.980Z,386.33
2023-03-20T04:38:52.149Z,536.67
2023-03-20T04:41:21.209Z,397.03
2023-03-20T04:43:48.433Z,313.30
2023-03-20T04:46:15.609Z,466.50
2023-03-20T04:48:42.774Z,235.33
2023-03-20T04:51:09.963Z,289.27
2023-03-20T04:53:37.272Z,591.40
2023-03-20T04:56:04.456Z,217.13
2023-03-20T04:58:31.717Z,423.93
2023-03-20T05:00:58.881Z,442.27
2023-03-20T05:03:27.582Z,298.83
2023-03-20T05:05:54.897Z,374.60
2023-03-20T05:08:22.034Z,396.90
2023-03-20T05:10:49.159Z,367.57
2023-03-20T05:13:16.306Z,280.00
2023-03-20T05:15:43.841Z,369.33
2023-03-20T05:18:10.996Z,401.47
2023-03-20T05:20:38.145Z,251.43
2023-03-20T05:23:06.442Z,222.87
2023-03-20T05:25:33.849Z,240.97
2023-03-20T05:28:01.148Z,143.47
2023-03-20T05:30:28.733Z,55.60
2023-03-20T05:32:56.558Z,103.30
2023-03-20T05:35:23.716Z,57.43
2023-03-20T05:37:50.864Z,57.67
2023-03-20T05:40:19.246Z,224.13
2023-03-20T05:42:46.851Z,163.30
2023-03-20T05:45:15.561Z,132.07
2023-03-20T05:47:42.755Z,136.30
2023-03-20T05:50:10.386Z,237.87
2023-03-20T05:52:37.538Z,210.17
2023-03-20T05:55:05.812Z,268.93
2023-03-20T05:57:32.941Z,241.43
2023-03-20T06:00:00.280Z,138.80
2023-03-20T06:02:27.459Z,285.40
2023-03-20T06:04:54.695Z,215.37
2023-03-20T06:07:22.132Z,208.67
2023-03-20T06:09:49.330Z,206.77
2023-03-20T06:12:16.458Z,243.17
2023-03-20T06:14:43.692Z,231.03
2023-03-20T06:17:11.056Z,123.63
2023-03-20T06:19:38.622Z,262.77
2023-03-20T06:22:05.917Z,188.43
2023-03-20T06:24:33.276Z,141.73
2023-03-20T06:27:00.442Z,199.40
2023-03-20T06:29:28.937Z,223.40
2023-03-20T06:31:56.962Z,176.37
2023-03-20T06:34:24.074Z,91.33
2023-03-20T06:36:51.216Z,44.33
2023-03-20T06:39:18.670Z,82.87
2023-03-20T06:41:45.814Z,99.83
2023-03-20T06:44:13.085Z,62.80
2023-03-20T06:46:40.371Z,152.70
2023-03-20T06:49:07.558Z,90.70
2023-03-20T06:51:34.687Z,83.67
2023-03-20T06:54:02.220Z,115.93
2023-03-20T06:56:29.378Z,54.13
2023-03-20T06:58:56.508Z,33.30
2023-03-20T07:01:24.302Z,36.17
2023-03-20T07:03:51.447Z,37.40
2023-03-20T07:06:18.819Z,28.37
2023-03-20T07:08:46.009Z,29.77
2023-03-20T07:11:14.346Z,23.70
2023-03-20T07:13:41.671Z,23.90
2023-03-20T07:16:09.102Z,25.50
2023-03-20T07:18:37.047Z,23.20
2023-03-20T07:21:06.341Z,21.97
2023-03-20T07:23:34.471Z,23.77
2023-03-20T07:26:01.860Z,21.70
2023-03-20T07:28:29.008Z,22.40
2023-03-20T07:30:56.777Z,20.60
2023-03-20T07:33:24.010Z,20.97
2023-03-20T07:35:54.488Z,21.53
2023-03-20T07:38:21.961Z,22.27
2023-03-20T07:40:49.320Z,20.07
2023-03-20T07:43:17.405Z,21.00
2023-03-20T07:45:44.954Z,20.70
2023-03-20T07:48:12.134Z,23.07
2023-03-20T07:50:39.310Z,19.07
2023-03-20T07:53:06.454Z,19.03
2023-03-20T07:55:33.576Z,14.57
2023-03-20T07:58:00.896Z,16.23
2023-03-20T08:00:28.536Z,16.23
2023-03-20T08:02:57.012Z,14.17
2023-03-20T08:05:24.923Z,12.70
2023-03-20T08:07:52.328Z,15.30
2023-03-20T08:10:19.796Z,12.60
2023-03-20T08:12:46.954Z,12.50
2023-03-20T08:15:14.095Z,9.43
2023-03-20T08:17:44.908Z,11.37
2023-03-20T08:20:13.043Z,9.80
2023-03-20T08:22:40.627Z,9.33
2023-03-20T08:25:08.527Z,10.07
2023-03-20T08:27:36.719Z,8.90
2023-03-20T08:30:04.405Z,9.77
2023-03-20T08:32:31.645Z,7.33
2023-03-20T08:34:58.764Z,8.80
2023-03-20T08:37:25.896Z,10.93
2023-03-20T08:39:53.456Z,12.47
2023-03-20T08:42:20.973Z,7.67
2023-03-20T08:44:48.279Z,10.97
2023-03-20T08:47:16.205Z,8.07
2023-03-20T08:49:43.697Z,8.07
2023-03-20T08:52:11.172Z,9.53
2023-03-20T08:54:38.308Z,6.73
2023-03-20T08:57:05.681Z,6.60
2023-03-20T08:59:32.980Z,8.67
2023-03-20T09:02:00.402Z,10.17
2023-03-20T09:04:27.991Z,8.50
2023-03-20T09:06:55.293Z,11.73
2023-03-20T09:09:29.345Z,7.37
2023-03-20T09:12:00.508Z,8.27
2023-03-20T09:14:28.476Z,6.80
2023-03-20T09:16:55.634Z,7.73
2023-03-20T09:19:22.798Z,8.30
2023-03-20T09:21:49.999Z,10.80
2023-03-20T09:24:17.121Z,8.77
2023-03-20T09:26:44.260Z,8.77
2023-03-20T09:29:11.406Z,8.13
2023-03-20T09:31:38.611Z,11.33
2023-03-20T09:34:06.222Z,8.70
2023-03-20T09:36:33.944Z,9.47
2023-03-20T09:39:01.649Z,11.90
2023-03-20T09:41:45.810Z,7.87
2023-03-20T09:44:26.028Z,11.73
2023-03-20T09:47:20.677Z,9.57
2023-03-20T09:50:07.755Z,8.97
2023-03-20T09:52:34.847Z,9.10
2023-03-20T09:55:04.402Z,11.03
2023-03-20T09:57:41.837Z,7.43
2023-03-20T10:00:13.416Z,9.77
2023-03-20T10:02:54.381Z,9.33
2023-03-20T10:05:32.390Z,8.20
2023-03-20T10:08:01.307Z,12.50
2023-03-20T10:10:32.704Z,9.10
2023-03-20T10:13:11.961Z,7.70
2023-03-20T10:15:47.507Z,10.13
2023-03-20T10:18:22.895Z,8.40
2023-03-20T10:20:59.548Z,10.07
2023-03-20T10:23:37.429Z,9.03
2023-03-20T10:26:07.683Z,9.40
2023-03-20T10:28:44.826Z,9.37
2023-03-20T10:31:31.066Z,11.10
2023-03-20T10:33:58.191Z,9.67
2023-03-20T10:36:25.436Z,13.63
2023-03-20T10:39:00.753Z,9.47
2023-03-20T10:41:32.697Z,11.20
2023-03-20T10:44:00.514Z,11.90
2023-03-20T10:46:36.200Z,9.53
2023-03-20T10:49:15.774Z,10.43
2023-03-20T10:51:47.593Z,10.07
2023-03-20T10:54:22.250Z,8.27
2023-03-20T10:56:50.592Z,12.60
2023-03-20T10:59:25.264Z,9.27
2023-03-20T11:01:52.843Z,10.80
2023-03-20T11:04:20.121Z,15.80
2023-03-20T11:06:50.357Z,11.87
2023-03-20T11:09:21.486Z,9.33
2023-03-20T11:11:49.420Z,13.87
2023-03-20T11:14:21.436Z,9.40
2023-03-20T11:16:50.035Z,10.43
2023-03-20T11:19:17.605Z,9.20
2023-03-20T11:21:56.183Z,13.37
2023-03-20T11:24:41.950Z,12.03
2023-03-20T11:27:09.159Z,11.13
2023-03-20T11:29:36.728Z,11.67
2023-03-20T11:32:04.855Z,12.60
2023-03-20T11:34:33.524Z,14.73
2023-03-20T11:37:10.206Z,15.27
2023-03-20T11:39:39.918Z,10.53
2023-03-20T11:42:20.736Z,13.97
2023-03-20T11:44:57.284Z,11.07
2023-03-20T11:47:26.134Z,10.57
2023-03-20T11:49:57.419Z,12.00
2023-03-20T11:52:39.091Z,13.50
2023-03-20T11:55:09.908Z,13.07
2023-03-20T11:57:38.797Z,10.53
2023-03-20T12:00:11.987Z,13.10
2023-03-20T12:02:41.732Z,13.60
2023-03-20T12:05:27.931Z,16.10
2023-03-20T12:07:58.125Z,15.73
2023-03-20T12:10:29.058Z,22.83
2023-03-20T12:12:59.330Z,16.17
2023-03-20T12:15:32.213Z,15.20
2023-03-20T12:18:05.172Z,14.67
2023-03-20T12:20:37.887Z,16.67
2023-03-20T12:23:11.583Z,11.43
2023-03-20T12:25:41.769Z,12.20
2023-03-20T12:28:32.165Z,13.90
2023-03-20T12:31:14.600Z,14.73
2023-03-20T12:34:03.508Z,15.00
2023-03-20T12:36:35.386Z,11.50
2023-03-20T12:39:03.482Z,13.03
2023-03-20T12:41:35.843Z,10.53
2023-03-20T12:44:09.015Z,15.47
2023-03-20T12:46:36.288Z,12.33
2023-03-20T12:49:09.642Z,9.60
2023-03-20T12:51:44.877Z,13.63
2023-03-20T12:54:17.796Z,11.03
2023-03-20T12:56:44.920Z,10.90
2023-03-20T12:59:28.218Z,15.80
2023-03-20T13:02:03.821Z,12.40
2023-03-20T13:04:43.086Z,9.37
2023-03-20T13:07:33.409Z,17.20
2023-03-20T13:10:01.289Z,12.10
2023-03-20T13:12:41.320Z,15.17
2023-03-20T13:15:25.210Z,13.17
2023-03-20T13:18:10.461Z,11.77
2023-03-20T13:20:44.081Z,11.60
2023-03-20T13:23:22.855Z,12.27
2023-03-20T13:25:49.959Z,13.97
2023-03-20T13:28:35.880Z,8.87
2023-03-20T13:31:18.221Z,14.77
2023-03-20T13:33:57.356Z,14.90
2023-03-20T13:36:39.849Z,13.33
2023-03-20T13:39:13.061Z,16.17
2023-03-20T13:41:40.342Z,12.33
2023-03-20T13:44:10.447Z,14.90
2023-03-20T13:46:41.512Z,14.70
2023-03-20T13:49:31.429Z,14.33
2023-03-20T13:52:15.054Z,8.57
2023-03-20T13:54:48.305Z,18.87
2023-03-20T13:57:15.443Z,13.67
2023-03-20T14:00:01.913Z,14.83
2023-03-20T14:02:36.660Z,22.27
2023-03-20T14:05:11.567Z,17.13
2023-03-20T14:07:39.958Z,12.37
2023-03-20T14:10:33.332Z,12.40
2023-03-20T14:13:01.623Z,12.50
2023-03-20T14:15:32.146Z,13.30
2023-03-20T14:17:59.364Z,12.73
2023-03-20T14:20:26.521Z,12.67
2023-03-20T14:22:53.666Z,16.07
2023-03-20T14:25:21.794Z,14.33
2023-03-20T14:27:57.203Z,9.97
2023-03-20T14:30:30.820Z,16.63
2023-03-20T14:33:07.228Z,13.30
2023-03-20T14:35:38.601Z,11.80
2023-03-20T14:38:21.178Z,11.67
2023-03-20T14:41:08.563Z,16.60
2023-03-20T14:43:58.512Z,14.23
2023-03-20T14:46:41.239Z,13.90
2023-03-20T14:49:21.014Z,10.43
2023-03-20T14:51:48.997Z,12.10
2023-03-20T14:54:22.149Z,12.30
2023-03-20T14:56:50.847Z,16.80
2023-03-20T14:59:18.847Z,15.10
2023-03-20T15:01:47.546Z,14.37
2023-03-20T15:04:17.844Z,12.50
2023-03-20T15:07:08.241Z,15.27
2023-03-20T15:09:37.449Z,12.87
2023-03-20T15:12:05.064Z,12.90
2023-03-20T15:14:52.471Z,15.23
2023-03-20T15:17:21.797Z,11.83
2023-03-20T15:19:51.976Z,11.67
2023-03-20T15:22:20.341Z,13.03
2023-03-20T15:24:55.791Z,14.47
2023-03-20T15:27:26.027Z,16.80
2023-03-20T15:29:54.949Z,17.53
2023-03-20T15:32:22.447Z,17.53
2023-03-20T15:34:50.995Z,14.60
2023-03-20T15:37:20.838Z,18.57
2023-03-20T15:39:49.487Z,14.53
2023-03-20T15:42:18.430Z,15.40
2023-03-20T15:44:48.068Z,14.47
2023-03-20T15:47:20.921Z,17.47
2023-03-20T15:49:55.680Z,13.47
2023-03-20T15:52:32.113Z,12.40
2023-03-20T15:55:00.118Z,13.63
2023-03-20T15:57:33.645Z,13.37
2023-03-20T16:00:02.900Z,16.33
2023-03-20T16:02:30.801Z,15.23
2023-03-20T16:04:58.118Z,15.67
2023-03-20T16:07:29.820Z,14.80
2023-03-20T16:09:57.061Z,14.60
2023-03-20T16:12:26.634Z,15.37
2023-03-20T16:14:54.061Z,17.40
2023-03-20T16:17:22.557Z,17.83
2023-03-20T16:19:49.770Z,12.30
2023-03-20T16:22:28.620Z,17.20
2023-03-20T16:24:58.218Z,19.40
2023-03-20T16:27:29.560Z,14.80
2023-03-20T16:29:56.964Z,17.33
2023-03-20T16:32:27.947Z,13.23
2023-03-20T16:34:56.825Z,12.13
2023-03-20T16:37:23.922Z,16.27
2023-03-20T16:40:02.011Z,12.43
2023-03-20T16:42:29.842Z,12.83
2023-03-20T16:44:57.646Z,12.10
2023-03-20T16:47:36.129Z,11.37
2023-03-20T16:50:09.646Z,11.53
2023-03-20T16:52:38.231Z,17.00
2023-03-20T16:55:05.904Z,13.00
2023-03-20T16:57:37.121Z,11.37
2023-03-20T17:00:08.301Z,14.37
2023-03-20T17:02:41.106Z,11.70
2023-03-20T17:05:12.860Z,12.60
2023-03-20T17:07:40.318Z,8.00
2023-03-20T17:10:16.556Z,8.63
2023-03-20T17:12:44.868Z,9.63
2023-03-20T17:15:16.508Z,14.43
2023-03-20T17:17:44.072Z,9.50
2023-03-20T17:20:26.234Z,10.53
2023-03-20T17:22:53.538Z,12.80
2023-03-20T17:25:21.034Z,8.73
2023-03-20T17:27:48.404Z,10.50
2023-03-20T17:30:20.586Z,9.87
2023-03-20T17:32:47.953Z,11.10
2023-03-20T17:35:15.411Z,11.43
2023-03-20T17:37:42.913Z,10.67
2023-03-20T17:40:19.538Z,9.90
2023-03-20T17:42:47.142Z,9.47
2023-03-20T17:45:15.230Z,9.37
2023-03-20T17:47:43.402Z,10.83
2023-03-20T17:50:19.718Z,9.37
2023-03-20T17:52:46.966Z,9.57
2023-03-20T17:55:15.678Z,8.40
2023-03-20T17:57:43.491Z,8.20
2023-03-20T18:00:28.765Z,9.00
2023-03-20T18:02:56.077Z,8.87
2023-03-20T18:05:23.331Z,9.43
2023-03-20T18:07:50.605Z,8.23
2023-03-20T18:10:24.522Z,10.00
2023-03-20T18:12:51.672Z,10.93
2023-03-20T18:15:18.879Z,9.13
2023-03-20T18:17:46.091Z,10.83
2023-03-20T18:20:22.328Z,10.50
2023-03-20T18:22:49.554Z,8.20
2023-03-20T18:25:16.746Z,8.30
2023-03-20T18:27:44.677Z,8.43
2023-03-20T18:30:18.902Z,8.67
2023-03-20T18:32:47.358Z,7.10
2023-03-20T18:35:14.547Z,6.10
2023-03-20T18:37:41.897Z,9.47
2023-03-20T18:40:28.881Z,7.83
2023-03-20T18:42:57.365Z,8.23
2023-03-20T18:45:25.102Z,6.50
2023-03-20T18:47:52.507Z,6.40
2023-03-20T18:50:19.632Z,7.00
2023-03-20T18:52:46.744Z,6.53
2023-03-20T18:55:13.935Z,7.20
2023-03-20T18:57:44.253Z,6.77
2023-03-20T19:00:23.712Z,6.97
2023-03-20T19:02:51.691Z,6.43
2023-03-20T19:05:19.392Z,6.10
2023-03-20T19:07:46.989Z,7.80
2023-03-20T19:10:23.356Z,7.50
2023-03-20T19:12:51.113Z,7.30
2023-03-20T19:15:18.592Z,7.77
2023-03-20T19:17:45.722Z,7.73
2023-03-20T19:20:36.601Z,8.30
2023-03-20T19:23:04.687Z,8.07
2023-03-20T19:25:32.171Z,9.73
2023-03-20T19:27:59.626Z,9.23
2023-03-20T19:30:27.212Z,8.50
2023-03-20T19:32:55.195Z,8.33
2023-03-20T19:38:13.653Z,7.87
2023-03-20T19:40:43.305Z,8.43
2023-03-20T19:43:10.971Z,7.67
2023-03-20T19:45:39.470Z,8.47
2023-03-20T19:48:17.104Z,9.17
2023-03-20T19:50:46.677Z,9.90
2023-03-20T19:53:15.845Z,9.20
2023-03-20T19:55:43.080Z,11.53
2023-03-20T19:58:10.621Z,9.93
2023-03-20T20:03:26.336Z,11.30
2023-03-20T20:05:53.963Z,16.23
2023-03-20T20:08:41.341Z,10.27
2023-03-20T20:11:11.774Z,10.17
2023-03-20T20:13:57.291Z,11.47
2023-03-20T20:16:26.360Z,10.73
2023-03-20T20:18:53.496Z,11.67
2023-03-20T20:22:10.018Z,10.87
2023-03-20T20:24:07.882Z,10.27
2023-03-20T20:26:40.595Z,9.63
2023-03-20T20:29:12.400Z,12.27
2023-03-20T20:31:39.605Z,10.93
2023-03-20T20:35:13.741Z,10.30
2023-03-20T20:39:41.111Z,11.23
2023-03-20T20:42:08.291Z,12.57
2023-03-20T20:44:35.889Z,11.87
2023-03-20T20:47:03.086Z,11.07
2023-03-20T20:49:30.582Z,11.40
2023-03-20T20:51:58.322Z,13.53
2023-03-20T20:54:26.232Z,11.40
2023-03-20T20:56:53.748Z,12.40
2023-03-20T20:59:21.004Z,12.33
2023-03-20T21:01:49.293Z,11.87
2023-03-20T21:04:16.550Z,11.97
2023-03-20T21:07:08.244Z,12.03
2023-03-20T21:09:30.901Z,16.27
2023-03-20T21:11:58.075Z,13.57
2023-03-20T21:14:25.298Z,10.77
2023-03-20T21:16:53.146Z,13.90
2023-03-20T21:19:20.375Z,11.70
2023-03-20T21:21:47.621Z,10.80
2023-03-20T21:24:31.582Z,10.20
2023-03-20T21:27:00.463Z,10.33
2023-03-20T21:29:27.694Z,9.90
2023-03-20T21:31:54.878Z,10.93
2023-03-20T21:34:22.040Z,10.53
2023-03-20T21:36:50.942Z,11.73
2023-03-20T21:39:18.328Z,10.37
2023-03-20T21:41:46.102Z,10.83
2023-03-20T21:44:17.755Z,11.93
2023-03-20T21:47:20.068Z,11.00
2023-03-20T22:07:17.883Z,9.80
2023-03-20T22:12:50.140Z,9.73
2023-03-20T22:18:05.821Z,10.90
2023-03-20T22:21:13.390Z,10.10
2023-03-20T22:23:45.682Z,11.67
2023-03-20T22:32:18.262Z,12.60
2023-03-20T22:35:04.328Z,10.73
2023-03-20T22:37:46.314Z,10.00
2023-03-20T22:40:37.089Z,11.87
2023-03-20T22:43:05.826Z,11.27
2023-03-20T22:45:37.679Z,10.90
2023-03-20T22:48:11.556Z,11.33
2023-03-20T22:50:40.206Z,10.00
2023-03-20T22:53:07.465Z,10.63
2023-03-20T22:55:34.630Z,12.23
2023-03-20T22:58:07.376Z,13.00
2023-03-20T23:00:36.514Z,11.80
2023-03-20T23:03:37.606Z,12.67
2023-03-20T23:05:52.632Z,13.37
2023-03-20T23:08:20.197Z,15.33
2023-03-20T23:10:48.061Z,13.33
2023-03-20T23:13:15.583Z,12.00
2023-03-20T23:15:42.894Z,11.47
2023-03-20T23:18:10.665Z,12.83
2023-03-20T23:20:38.113Z,12.17
2023-03-20T23:23:05.671Z,11.33
2023-03-20T23:25:39.154Z,12.27
2023-03-20T23:28:07.907Z,12.97
2023-03-20T23:30:44.332Z,11.90
2023-03-20T23:33:13.635Z,11.17
2023-03-20T23:35:40.888Z,10.00
2023-03-20T23:38:08.048Z,11.03
2023-03-20T23:40:35.609Z,12.70
2023-03-20T23:43:02.913Z,12.73
2023-03-20T23:45:30.056Z,10.23
2023-03-20T23:47:57.203Z,9.80
2023-03-20T23:50:36.689Z,7.73
2023-03-20T23:53:19.790Z,7.60
2023-03-20T23:55:48.393Z,8.83
2023-03-20T23:58:16.280Z,8.10
